MLD026 EPWA-LUKK
Flight info
| Callsign | MLD026 |
|---|---|
| Flight time | N/A |
| Altitude | 33000 |
| Route | XIMBA N195 NATEV DCT ROBTU DCT KENIN DCT KARIL DCT BUSES |
| Aircraft | T134/M-SDRWY/C |
Departure
| Time | N/A |
|---|---|
| Airport | Warsaw Chopin Airport (EPWA) |
Arrival
| Time | 2026-05-05 14:26 |
|---|---|
| Airport | Chişinău International Airport (LUKK) |
| Time | Latitude | Longitude | Altitude | Speed | Heading |
|---|---|---|---|---|---|
| 2026-05-05 13:34 | 48.51057 | 21.89014 | 32954 ft | 452 kts | 175° |
| 2026-05-05 13:35 | 48.37931 | 21.92260 | 32947 ft | 454 kts | 161° |
| 2026-05-05 13:35 | 48.28237 | 21.99702 | 32950 ft | 455 kts | 151° |
| 2026-05-05 13:36 | 48.22855 | 22.04563 | 32966 ft | 455 kts | 152° |
| 2026-05-05 13:36 | 48.17436 | 22.09390 | 32956 ft | 455 kts | 149° |
| 2026-05-05 13:37 | 48.12016 | 22.14231 | 32959 ft | 455 kts | 148° |
| 2026-05-05 13:37 | 48.06563 | 22.19089 | 32964 ft | 455 kts | 147° |
| 2026-05-05 13:38 | 48.01690 | 22.23397 | 32967 ft | 455 kts | 147° |
| 2026-05-05 13:38 | 47.97390 | 22.27343 | 32966 ft | 456 kts | 149° |
| 2026-05-05 13:39 | 47.91928 | 22.32250 | 32967 ft | 455 kts | 147° |
| 2026-05-05 13:39 | 47.88656 | 22.35253 | 32964 ft | 455 kts | 147° |
| 2026-05-05 13:40 | 47.83688 | 22.39998 | 32959 ft | 455 kts | 140° |
| 2026-05-05 13:40 | 47.81478 | 22.43355 | 32981 ft | 453 kts | 125° |
| 2026-05-05 13:40 | 47.79882 | 22.47314 | 32981 ft | 451 kts | 111° |
| 2026-05-05 13:41 | 47.78182 | 22.56260 | 32968 ft | 448 kts | 101° |
| 2026-05-05 13:41 | 47.76706 | 22.65255 | 32967 ft | 447 kts | 102° |
| 2026-05-05 13:42 | 47.75228 | 22.74227 | 32970 ft | 449 kts | 102° |
| 2026-05-05 13:42 | 47.73754 | 22.83166 | 32962 ft | 448 kts | 102° |
| 2026-05-05 13:43 | 47.72270 | 22.92160 | 32955 ft | 448 kts | 102° |
| 2026-05-05 13:43 | 47.70790 | 23.01103 | 32958 ft | 447 kts | 102° |
| 2026-05-05 13:44 | 47.69300 | 23.10090 | 32960 ft | 448 kts | 101° |
| 2026-05-05 13:44 | 47.67826 | 23.18984 | 32961 ft | 447 kts | 101° |
| 2026-05-05 13:45 | 47.66337 | 23.27961 | 32964 ft | 447 kts | 101° |
| 2026-05-05 13:45 | 47.64853 | 23.36904 | 32981 ft | 447 kts | 101° |
| 2026-05-05 13:46 | 47.63376 | 23.45845 | 33002 ft | 447 kts | 101° |
| 2026-05-05 13:46 | 47.61913 | 23.54766 | 33022 ft | 447 kts | 101° |
| 2026-05-05 13:47 | 47.60464 | 23.63671 | 33023 ft | 447 kts | 101° |
| 2026-05-05 13:47 | 47.59022 | 23.72602 | 32980 ft | 447 kts | 101° |
| 2026-05-05 13:48 | 47.57589 | 23.81547 | 32976 ft | 445 kts | 101° |
| 2026-05-05 13:48 | 47.56177 | 23.90438 | 33012 ft | 446 kts | 101° |
| 2026-05-05 13:49 | 47.54769 | 23.99377 | 33034 ft | 446 kts | 101° |
| 2026-05-05 13:49 | 47.53372 | 24.08318 | 32918 ft | 448 kts | 101° |
| 2026-05-05 13:50 | 47.52679 | 24.12776 | 32716 ft | 449 kts | 101° |
| 2026-05-05 13:50 | 47.51983 | 24.17264 | 32360 ft | 450 kts | 101° |
| 2026-05-05 13:50 | 47.51290 | 24.21735 | 32067 ft | 444 kts | 101° |
| 2026-05-05 13:50 | 47.50606 | 24.26154 | 31922 ft | 441 kts | 100° |
| 2026-05-05 13:51 | 47.49251 | 24.34975 | 31992 ft | 442 kts | 100° |
| 2026-05-05 13:51 | 47.48564 | 24.39442 | 32120 ft | 442 kts | 100° |
| 2026-05-05 13:51 | 47.47889 | 24.43822 | 32394 ft | 439 kts | 100° |
| 2026-05-05 13:52 | 47.47218 | 24.48156 | 32617 ft | 438 kts | 100° |
| 2026-05-05 13:52 | 47.46531 | 24.52580 | 32813 ft | 440 kts | 100° |
| 2026-05-05 13:52 | 47.45150 | 24.61453 | 32948 ft | 450 kts | 100° |
| 2026-05-05 13:53 | 47.43744 | 24.70460 | 32648 ft | 444 kts | 101° |
| 2026-05-05 13:53 | 47.42377 | 24.79140 | 32567 ft | 435 kts | 101° |
| 2026-05-05 13:54 | 47.40996 | 24.87873 | 32586 ft | 441 kts | 101° |
| 2026-05-05 13:54 | 47.39597 | 24.96678 | 32577 ft | 440 kts | 101° |
| 2026-05-05 13:55 | 47.38197 | 25.05450 | 32540 ft | 440 kts | 101° |
| 2026-05-05 13:55 | 47.36783 | 25.14257 | 32500 ft | 440 kts | 101° |
| 2026-05-05 13:56 | 47.35379 | 25.22953 | 32425 ft | 439 kts | 101° |
| 2026-05-05 13:56 | 47.33959 | 25.31715 | 32343 ft | 439 kts | 101° |
| 2026-05-05 13:57 | 47.32541 | 25.40422 | 32297 ft | 438 kts | 101° |
| 2026-05-05 13:57 | 47.31118 | 25.49110 | 32269 ft | 438 kts | 101° |
| 2026-05-05 13:58 | 47.29693 | 25.57768 | 32421 ft | 436 kts | 101° |
| 2026-05-05 13:58 | 47.28972 | 25.62137 | 32531 ft | 437 kts | 101° |
| 2026-05-05 13:58 | 47.28257 | 25.66460 | 32589 ft | 440 kts | 102° |
| 2026-05-05 13:59 | 47.26083 | 25.79549 | 32543 ft | 437 kts | 102° |
| 2026-05-05 14:00 | 47.24163 | 25.91028 | 32558 ft | 437 kts | 102° |
| 2026-05-05 14:00 | 47.22453 | 26.01183 | 32566 ft | 437 kts | 102° |
| 2026-05-05 14:01 | 47.20998 | 26.09810 | 32551 ft | 438 kts | 102° |
| 2026-05-05 14:01 | 47.19534 | 26.18437 | 32530 ft | 437 kts | 102° |
| 2026-05-05 14:02 | 47.18060 | 26.27087 | 32368 ft | 438 kts | 102° |
| 2026-05-05 14:02 | 47.17320 | 26.31419 | 32163 ft | 435 kts | 102° |
| 2026-05-05 14:02 | 47.16585 | 26.35717 | 31949 ft | 432 kts | 102° |
| 2026-05-05 14:03 | 47.15854 | 26.39979 | 31732 ft | 429 kts | 102° |
| 2026-05-05 14:03 | 47.15128 | 26.44200 | 31486 ft | 428 kts | 102° |
| 2026-05-05 14:03 | 47.14404 | 26.48401 | 31215 ft | 426 kts | 102° |
| 2026-05-05 14:03 | 47.13681 | 26.52578 | 30944 ft | 424 kts | 102° |
| 2026-05-05 14:04 | 47.12951 | 26.56789 | 30668 ft | 422 kts | 102° |
| 2026-05-05 14:04 | 47.12232 | 26.60927 | 30324 ft | 421 kts | 102° |
| 2026-05-05 14:04 | 47.11511 | 26.65060 | 29952 ft | 419 kts | 103° |
| 2026-05-05 14:04 | 47.10791 | 26.69178 | 29577 ft | 415 kts | 103° |
| 2026-05-05 14:05 | 47.10078 | 26.73244 | 29201 ft | 411 kts | 103° |
| 2026-05-05 14:05 | 47.09372 | 26.77254 | 28794 ft | 408 kts | 103° |
| 2026-05-05 14:05 | 47.08666 | 26.81262 | 28354 ft | 406 kts | 103° |
| 2026-05-05 14:05 | 47.07956 | 26.85270 | 27916 ft | 404 kts | 103° |
| 2026-05-05 14:06 | 47.07260 | 26.89196 | 27484 ft | 400 kts | 103° |
| 2026-05-05 14:06 | 47.06562 | 26.93114 | 27048 ft | 396 kts | 103° |
| 2026-05-05 14:06 | 47.05870 | 26.96991 | 26614 ft | 393 kts | 103° |
| 2026-05-05 14:06 | 47.05182 | 27.00831 | 26182 ft | 390 kts | 103° |
| 2026-05-05 14:07 | 47.04489 | 27.04694 | 25688 ft | 389 kts | 103° |
| 2026-05-05 14:07 | 47.03802 | 27.08506 | 25113 ft | 387 kts | 103° |
| 2026-05-05 14:07 | 47.03125 | 27.12254 | 24534 ft | 382 kts | 103° |
| 2026-05-05 14:07 | 47.02480 | 27.15821 | 23980 ft | 378 kts | 103° |
| 2026-05-05 14:08 | 47.01811 | 27.19508 | 23405 ft | 373 kts | 103° |
| 2026-05-05 14:08 | 47.01155 | 27.23105 | 22837 ft | 369 kts | 102° |
| 2026-05-05 14:08 | 47.00495 | 27.26713 | 22263 ft | 365 kts | 102° |
| 2026-05-05 14:08 | 46.99842 | 27.30266 | 21696 ft | 360 kts | 102° |
| 2026-05-05 14:09 | 46.99191 | 27.33807 | 21128 ft | 358 kts | 102° |
| 2026-05-05 14:09 | 46.98553 | 27.37263 | 20580 ft | 355 kts | 102° |
| 2026-05-05 14:09 | 46.97908 | 27.40743 | 20034 ft | 351 kts | 102° |
| 2026-05-05 14:09 | 46.97278 | 27.44130 | 19504 ft | 349 kts | 102° |
| 2026-05-05 14:10 | 46.96641 | 27.47547 | 18969 ft | 346 kts | 102° |
| 2026-05-05 14:10 | 46.96005 | 27.50947 | 18438 ft | 343 kts | 102° |
| 2026-05-05 14:10 | 46.95380 | 27.54281 | 17917 ft | 340 kts | 102° |
| 2026-05-05 14:10 | 46.94760 | 27.57562 | 17403 ft | 337 kts | 102° |
| 2026-05-05 14:11 | 46.94132 | 27.60869 | 16885 ft | 334 kts | 102° |
| 2026-05-05 14:11 | 46.93513 | 27.64114 | 16376 ft | 332 kts | 102° |
| 2026-05-05 14:11 | 46.92899 | 27.67326 | 15875 ft | 329 kts | 102° |
| 2026-05-05 14:11 | 46.92288 | 27.70511 | 15381 ft | 327 kts | 102° |
| 2026-05-05 14:12 | 46.91672 | 27.73709 | 14887 ft | 325 kts | 102° |
| 2026-05-05 14:12 | 46.91063 | 27.76862 | 14404 ft | 322 kts | 102° |
| 2026-05-05 14:12 | 46.90458 | 27.79976 | 13928 ft | 321 kts | 102° |
| 2026-05-05 14:12 | 46.89846 | 27.83132 | 13448 ft | 319 kts | 102° |
| 2026-05-05 14:13 | 46.89251 | 27.86218 | 12972 ft | 317 kts | 102° |
| 2026-05-05 14:13 | 46.88663 | 27.89277 | 12503 ft | 315 kts | 102° |
| 2026-05-05 14:13 | 46.88070 | 27.92339 | 12033 ft | 313 kts | 102° |
| 2026-05-05 14:13 | 46.87473 | 27.95412 | 11563 ft | 312 kts | 102° |
| 2026-05-05 14:14 | 46.86890 | 27.98439 | 11103 ft | 310 kts | 102° |
| 2026-05-05 14:14 | 46.86321 | 28.01410 | 10732 ft | 306 kts | 102° |
| 2026-05-05 14:14 | 46.85748 | 28.04391 | 10519 ft | 304 kts | 102° |
| 2026-05-05 14:14 | 46.85185 | 28.07340 | 10319 ft | 302 kts | 102° |
| 2026-05-05 14:15 | 46.84615 | 28.10307 | 10120 ft | 303 kts | 102° |
| 2026-05-05 14:15 | 46.84059 | 28.13197 | 9916 ft | 291 kts | 103° |
| 2026-05-05 14:15 | 46.83520 | 28.15969 | 9684 ft | 280 kts | 103° |
| 2026-05-05 14:15 | 46.83248 | 28.18700 | 9417 ft | 266 kts | 83° |
| 2026-05-05 14:16 | 46.83718 | 28.21198 | 9134 ft | 254 kts | 60° |
| 2026-05-05 14:16 | 46.84711 | 28.23292 | 8832 ft | 246 kts | 51° |
| 2026-05-05 14:16 | 46.85724 | 28.25238 | 8518 ft | 241 kts | 51° |
| 2026-05-05 14:16 | 46.86800 | 28.27136 | 8146 ft | 239 kts | 48° |
| 2026-05-05 14:17 | 46.87873 | 28.28932 | 7777 ft | 236 kts | 48° |
| 2026-05-05 14:17 | 46.88948 | 28.30722 | 7401 ft | 234 kts | 48° |
| 2026-05-05 14:17 | 46.90022 | 28.32507 | 7024 ft | 233 kts | 48° |
| 2026-05-05 14:17 | 46.91095 | 28.34260 | 6619 ft | 233 kts | 47° |
| 2026-05-05 14:18 | 46.92195 | 28.36021 | 6135 ft | 237 kts | 47° |
| 2026-05-05 14:18 | 46.93303 | 28.37787 | 5670 ft | 239 kts | 47° |
| 2026-05-05 14:18 | 46.94425 | 28.39617 | 5209 ft | 241 kts | 53° |
| 2026-05-05 14:18 | 46.95104 | 28.41820 | 4756 ft | 243 kts | 79° |
| 2026-05-05 14:19 | 46.95062 | 28.44264 | 4314 ft | 244 kts | 102° |
| 2026-05-05 14:19 | 46.94634 | 28.46679 | 3879 ft | 245 kts | 103° |
| 2026-05-05 14:19 | 46.94203 | 28.49077 | 3453 ft | 245 kts | 104° |
| 2026-05-05 14:19 | 46.93767 | 28.51475 | 3031 ft | 245 kts | 104° |
| 2026-05-05 14:20 | 46.93335 | 28.53879 | 2710 ft | 239 kts | 104° |
| 2026-05-05 14:20 | 46.92925 | 28.56144 | 2559 ft | 228 kts | 104° |
| 2026-05-05 14:20 | 46.92524 | 28.58348 | 2399 ft | 218 kts | 104° |
| 2026-05-05 14:20 | 46.92147 | 28.60419 | 2302 ft | 204 kts | 103° |
| 2026-05-05 14:21 | 46.92080 | 28.62365 | 2313 ft | 183 kts | 73° |
| 2026-05-05 14:21 | 46.92406 | 28.64097 | 2274 ft | 175 kts | 82° |
| 2026-05-05 14:21 | 46.92511 | 28.65906 | 2053 ft | 182 kts | 85° |
| 2026-05-05 14:21 | 46.92588 | 28.67721 | 1908 ft | 175 kts | 88° |
| 2026-05-05 14:22 | 46.92627 | 28.69518 | 1679 ft | 180 kts | 88° |
| 2026-05-05 14:22 | 46.92653 | 28.71267 | 1910 ft | 163 kts | 89° |
| 2026-05-05 14:22 | 46.92549 | 28.72873 | 1907 ft | 162 kts | 97° |
| 2026-05-05 14:22 | 46.92425 | 28.74545 | 1878 ft | 167 kts | 92° |
| 2026-05-05 14:23 | 46.92419 | 28.76287 | 1850 ft | 172 kts | 87° |
| 2026-05-05 14:23 | 46.92456 | 28.78042 | 1743 ft | 170 kts | 87° |
| 2026-05-05 14:23 | 46.92512 | 28.79711 | 1677 ft | 163 kts | 85° |
| 2026-05-05 14:23 | 46.92547 | 28.81355 | 1481 ft | 162 kts | 89° |
| 2026-05-05 14:24 | 46.92543 | 28.82983 | 1302 ft | 160 kts | 86° |
| 2026-05-05 14:24 | 46.92591 | 28.84601 | 1142 ft | 159 kts | 86° |
| 2026-05-05 14:24 | 46.92628 | 28.86225 | 930 ft | 160 kts | 87° |
| 2026-05-05 14:24 | 46.92668 | 28.87842 | 755 ft | 159 kts | 86° |
| 2026-05-05 14:25 | 46.92697 | 28.89468 | 539 ft | 160 kts | 87° |
| 2026-05-05 14:25 | 46.92736 | 28.91089 | 353 ft | 162 kts | 87° |
| 2026-05-05 14:25 | 46.92775 | 28.92603 | 334 ft | 119 kts | 89° |
| 2026-05-05 14:25 | 46.92787 | 28.93429 | 333 ft | 67 kts | 86° |
| 2026-05-05 14:26 | 46.92802 | 28.94090 | 333 ft | 61 kts | 88° |
| 2026-05-05 14:26 | 46.92818 | 28.94605 | 333 ft | 48 kts | 90° |
| 2026-05-05 14:26 | 46.92820 | 28.94981 | 332 ft | 20 kts | 89° |
| 2026-05-05 14:26 | 46.92824 | 28.95076 | 332 ft | 0 kts | 72° |
| 2026-05-05 14:27 | 46.92825 | 28.95079 | 332 ft | 1 kts | 71° |
| 2026-05-05 14:27 | 46.92825 | 28.95080 | 332 ft | 0 kts | 69° |
| 2026-05-05 14:27 | 46.92831 | 28.95097 | 332 ft | 3 kts | 58° |
| 2026-05-05 14:27 | 46.92865 | 28.95106 | 332 ft | 7 kts | 357° |
| 2026-05-05 14:28 | 46.92931 | 28.95109 | 332 ft | 11 kts | 358° |
| 2026-05-05 14:28 | 46.93006 | 28.95078 | 332 ft | 10 kts | 304° |
| 2026-05-05 14:28 | 46.93026 | 28.94964 | 332 ft | 12 kts | 279° |
| 2026-05-05 14:28 | 46.93041 | 28.94820 | 332 ft | 15 kts | 287° |
| 2026-05-05 14:29 | 46.93058 | 28.94645 | 332 ft | 19 kts | 276° |
| 2026-05-05 14:29 | 46.93074 | 28.94441 | 332 ft | 21 kts | 277° |
| 2026-05-05 14:29 | 46.93090 | 28.94225 | 333 ft | 22 kts | 279° |
| 2026-05-05 14:29 | 46.93107 | 28.93997 | 333 ft | 22 kts | 278° |
| 2026-05-05 14:30 | 46.93125 | 28.93760 | 333 ft | 23 kts | 278° |
| 2026-05-05 14:30 | 46.93144 | 28.93539 | 333 ft | 14 kts | 276° |
| 2026-05-05 14:30 | 46.93180 | 28.93451 | 333 ft | 10 kts | 348° |
| 2026-05-05 14:30 | 46.93260 | 28.93460 | 333 ft | 12 kts | 7° |
| 2026-05-05 14:31 | 46.93318 | 28.93499 | 333 ft | 8 kts | 79° |
| 2026-05-05 14:31 | 46.93319 | 28.93577 | 333 ft | 6 kts | 50° |
| 2026-05-05 14:31 | 46.93361 | 28.93597 | 333 ft | 3 kts | 7° |
| 2026-05-05 14:31 | 46.93362 | 28.93597 | 333 ft | 0 kts | 7° |